createdAt,value
2023-04-26T00:03:28.661Z,99.90
2023-04-26T00:07:30.737Z,99.90
2023-04-26T00:11:32.602Z,99.90
2023-04-26T00:15:34.370Z,99.90
2023-04-26T00:19:36.909Z,99.90
2023-04-26T00:23:38.563Z,99.90
2023-04-26T00:27:41.645Z,99.90
2023-04-26T00:31:43.336Z,99.90
2023-04-26T00:35:44.948Z,99.90
2023-04-26T00:39:46.762Z,99.90
2023-04-26T00:43:48.389Z,99.90
2023-04-26T00:47:50.936Z,99.90
2023-04-26T00:51:53.502Z,99.90
2023-04-26T00:55:55.581Z,99.90
2023-04-26T00:59:57.280Z,99.90
2023-04-26T01:03:59.330Z,99.90
2023-04-26T01:08:02.495Z,99.90
2023-04-26T01:12:05.023Z,99.90
2023-04-26T01:16:08.394Z,99.90
2023-04-26T01:20:10.448Z,99.90
2023-04-26T01:24:13.636Z,99.90
2023-04-26T01:28:15.570Z,99.90
2023-04-26T01:32:17.268Z,99.90
2023-04-26T01:36:18.924Z,99.90
2023-04-26T01:40:21.119Z,99.90
2023-04-26T01:44:22.812Z,99.90
2023-04-26T01:48:24.480Z,99.90
2023-04-26T01:52:26.182Z,99.90
2023-04-26T01:56:28.052Z,99.90
2023-04-26T02:00:29.772Z,99.90
2023-04-26T02:04:31.706Z,99.90
2023-04-26T02:08:33.596Z,99.90
2023-04-26T02:12:35.204Z,99.90
2023-04-26T02:16:36.964Z,99.90
2023-04-26T02:20:43.204Z,99.90
2023-04-26T02:24:44.857Z,99.90
2023-04-26T02:28:46.515Z,99.90
2023-04-26T02:32:48.237Z,99.90
2023-04-26T02:36:49.913Z,99.90
2023-04-26T02:41:01.619Z,99.90
2023-04-26T02:45:03.468Z,99.90
2023-04-26T02:49:05.107Z,99.90
2023-04-26T02:53:06.823Z,99.90
2023-04-26T02:57:08.454Z,99.90
2023-04-26T03:01:10.524Z,99.90
2023-04-26T03:05:12.536Z,99.90
2023-04-26T03:09:14.179Z,99.90
2023-04-26T03:13:15.787Z,99.90
2023-04-26T03:17:17.427Z,99.90
2023-04-26T03:21:19.040Z,99.90
2023-04-26T03:25:20.731Z,99.90
2023-04-26T03:29:22.359Z,99.90
2023-04-26T03:33:24.105Z,99.90
2023-04-26T03:37:25.829Z,99.90
2023-04-26T03:41:27.478Z,99.90
2023-04-26T03:45:29.310Z,99.90
2023-04-26T03:49:30.934Z,99.90
2023-04-26T03:53:33.024Z,99.90
2023-04-26T03:57:34.626Z,99.90
2023-04-26T04:01:36.637Z,99.90
2023-04-26T04:05:38.731Z,99.90
2023-04-26T04:09:40.510Z,99.90
2023-04-26T04:13:42.292Z,99.90
2023-04-26T04:17:44.055Z,99.90
2023-04-26T04:21:45.892Z,99.90
2023-04-26T04:25:49.117Z,99.90
2023-04-26T04:29:50.823Z,99.90
2023-04-26T04:33:53.252Z,99.90
2023-04-26T04:37:58.700Z,99.90
2023-04-26T04:42:00.385Z,99.90
2023-04-26T04:46:02.232Z,99.90
2023-04-26T04:50:06.090Z,99.90
2023-04-26T04:54:15.841Z,99.90
2023-04-26T04:58:17.713Z,99.90
2023-04-26T05:02:20.243Z,99.90
2023-04-26T05:06:23.284Z,99.90
2023-04-26T05:10:24.935Z,99.90
2023-04-26T05:14:26.812Z,99.90
2023-04-26T05:18:28.781Z,99.90
2023-04-26T05:22:30.452Z,99.90
2023-04-26T05:26:32.187Z,99.90
2023-04-26T05:30:33.862Z,99.90
2023-04-26T05:34:36.444Z,99.90
2023-04-26T05:38:38.261Z,99.90
2023-04-26T05:42:39.992Z,99.90
2023-04-26T05:46:41.704Z,99.90
2023-04-26T05:50:43.347Z,99.90
2023-04-26T05:54:44.969Z,99.90
2023-04-26T05:58:47.586Z,99.90
2023-04-26T06:02:49.353Z,99.90
2023-04-26T06:06:51.204Z,99.90
2023-04-26T06:10:52.871Z,99.90
2023-04-26T06:14:54.533Z,99.90
2023-04-26T06:18:56.250Z,99.90
2023-04-26T06:22:57.873Z,99.90
2023-04-26T06:26:59.525Z,99.90
2023-04-26T06:31:01.446Z,99.90
2023-04-26T06:35:03.229Z,99.90
2023-04-26T06:39:04.928Z,99.90
2023-04-26T06:43:06.697Z,99.90
2023-04-26T06:47:09.461Z,99.90
2023-04-26T06:51:11.217Z,99.90
2023-04-26T06:55:12.992Z,99.90
2023-04-26T06:59:14.765Z,99.90
2023-04-26T07:03:16.940Z,99.90
2023-04-26T07:07:18.920Z,99.90
2023-04-26T07:11:22.332Z,99.90
2023-04-26T07:15:25.031Z,99.90
2023-04-26T07:19:26.996Z,99.90
2023-04-26T07:23:29.684Z,99.90
2023-04-26T07:27:31.581Z,99.90
2023-04-26T07:31:33.408Z,99.90
2023-04-26T07:35:37.786Z,99.90
2023-04-26T07:39:39.506Z,99.90
2023-04-26T07:43:42.614Z,99.90
2023-04-26T07:47:44.315Z,99.90
2023-04-26T07:51:51.070Z,99.90
2023-04-26T07:55:52.789Z,99.90
2023-04-26T07:59:54.866Z,99.90
2023-04-26T08:03:56.829Z,99.90
2023-04-26T08:08:00.348Z,99.90
2023-04-26T08:12:04.778Z,99.90
2023-04-26T08:16:09.625Z,99.90
2023-04-26T08:20:11.559Z,99.90
2023-04-26T08:24:13.227Z,99.90
2023-04-26T08:28:15.816Z,99.90
2023-04-26T08:32:17.496Z,99.90
2023-04-26T08:36:20.500Z,99.90
2023-04-26T08:40:24.932Z,99.90
2023-04-26T08:44:28.865Z,99.90
2023-04-26T08:48:34.200Z,99.90
2023-04-26T08:52:36.903Z,99.90
2023-04-26T08:56:41.833Z,99.90
2023-04-26T09:00:48.393Z,99.90
2023-04-26T09:04:51.478Z,99.90
2023-04-26T09:08:55.235Z,99.90
2023-04-26T09:12:57.025Z,99.90
2023-04-26T09:16:59.060Z,99.90
2023-04-26T09:21:08.928Z,99.90
2023-04-26T09:25:13.428Z,99.90
2023-04-26T09:29:20.353Z,99.90
2023-04-26T09:33:22.281Z,99.90
2023-04-26T09:37:23.943Z,99.90
2023-04-26T09:41:42.609Z,99.90
2023-04-26T09:45:55.689Z,99.90
2023-04-26T09:49:57.330Z,99.90
2023-04-26T09:53:59.032Z,99.90
2023-04-26T09:58:09.068Z,96.00
2023-04-26T10:02:24.587Z,96.10
2023-04-26T10:06:28.298Z,96.40
2023-04-26T10:10:31.857Z,95.00
2023-04-26T10:14:34.988Z,97.10
2023-04-26T10:18:36.733Z,98.80
2023-04-26T10:22:47.242Z,99.90
2023-04-26T10:26:57.232Z,98.50
2023-04-26T10:31:01.133Z,98.00
2023-04-26T10:35:12.218Z,97.90
2023-04-26T10:39:25.128Z,96.60
2023-04-26T10:43:30.265Z,96.00
2023-04-26T10:47:32.962Z,95.00
2023-04-26T10:51:35.349Z,95.70
2023-04-26T10:55:44.472Z,96.50
2023-04-26T11:00:13.769Z,97.40
2023-04-26T11:04:16.323Z,95.60
2023-04-26T11:08:20.725Z,94.20
2023-04-26T11:12:22.535Z,95.00
2023-04-26T11:16:29.093Z,95.20
2023-04-26T11:20:34.361Z,93.30
2023-04-26T11:24:39.189Z,94.20
2023-04-26T11:28:41.682Z,93.40
2023-04-26T11:32:46.505Z,93.50
2023-04-26T11:36:48.317Z,93.20
2023-04-26T11:40:57.723Z,91.60
2023-04-26T11:45:01.536Z,92.20
2023-04-26T11:49:03.869Z,93.30
2023-04-26T11:53:08.087Z,93.40
2023-04-26T11:57:19.551Z,92.10
2023-04-26T12:01:23.182Z,93.20
2023-04-26T12:05:26.916Z,94.00
2023-04-26T12:09:30.148Z,93.20
2023-04-26T12:13:32.635Z,91.00
2023-04-26T12:17:34.309Z,93.10
2023-04-26T12:21:43.260Z,92.70
2023-04-26T12:25:56.631Z,92.80
2023-04-26T12:29:58.289Z,93.50
2023-04-26T12:34:00.228Z,91.10
2023-04-26T12:38:02.124Z,92.60
2023-04-26T12:42:04.139Z,92.40
2023-04-26T12:46:09.445Z,93.00
2023-04-26T12:50:12.752Z,92.10
2023-04-26T12:54:14.647Z,90.40
2023-04-26T12:58:16.462Z,90.90
2023-04-26T13:02:18.310Z,90.80
2023-04-26T13:06:20.108Z,91.00
2023-04-26T13:10:22.269Z,90.50
2023-04-26T13:14:23.931Z,90.50
2023-04-26T13:18:26.333Z,90.10
2023-04-26T13:22:28.055Z,90.10
2023-04-26T13:26:29.662Z,89.80
2023-04-26T13:30:31.562Z,89.70
2023-04-26T13:34:33.234Z,89.80
2023-04-26T13:38:34.981Z,90.30
2023-04-26T13:42:37.401Z,88.60
2023-04-26T13:46:39.221Z,86.60
2023-04-26T13:50:41.054Z,88.20
2023-04-26T13:54:43.341Z,88.90
2023-04-26T13:58:44.967Z,90.20
2023-04-26T14:02:46.822Z,89.50
2023-04-26T14:06:48.630Z,88.90
2023-04-26T14:10:50.493Z,89.80
2023-04-26T14:14:52.163Z,88.40
2023-04-26T14:18:53.832Z,90.00
2023-04-26T14:22:56.005Z,88.50
2023-04-26T14:26:58.383Z,90.20
2023-04-26T14:31:00.752Z,88.80
2023-04-26T14:35:02.461Z,86.80
2023-04-26T14:39:04.349Z,89.10
2023-04-26T14:43:06.124Z,87.70
2023-04-26T14:47:07.766Z,89.80
2023-04-26T14:51:09.511Z,87.80
2023-04-26T14:55:11.208Z,88.20
2023-04-26T14:59:12.886Z,87.20
2023-04-26T15:03:14.719Z,88.20
2023-04-26T15:07:30.950Z,87.80
2023-04-26T15:11:34.060Z,85.90
2023-04-26T15:15:35.753Z,88.80
2023-04-26T15:19:37.781Z,87.60
2023-04-26T15:23:39.394Z,87.50
2023-04-26T15:27:41.269Z,86.90
2023-04-26T15:31:42.912Z,88.50
2023-04-26T15:35:44.580Z,87.10
2023-04-26T15:39:46.692Z,89.90
2023-04-26T15:43:54.386Z,90.70
2023-04-26T15:47:57.213Z,89.70
2023-04-26T15:51:59.003Z,88.60
2023-04-26T15:56:01.369Z,89.10
2023-04-26T16:00:08.367Z,89.80
2023-04-26T16:04:10.273Z,88.60
2023-04-26T16:08:12.548Z,89.90
2023-04-26T16:12:14.260Z,90.60
2023-04-26T16:16:15.899Z,89.00
2023-04-26T16:20:17.546Z,89.20
2023-04-26T16:24:20.003Z,90.40
2023-04-26T16:28:21.718Z,90.00
2023-04-26T16:32:23.438Z,89.10
2023-04-26T16:36:25.705Z,89.50
2023-04-26T16:40:57.620Z,89.10
2023-04-26T16:44:59.427Z,88.30
2023-04-26T16:49:01.045Z,87.20
2023-04-26T16:53:02.968Z,86.50
2023-04-26T16:57:04.759Z,86.70
2023-04-26T17:01:06.493Z,86.40
2023-04-26T17:05:10.017Z,85.40
2023-04-26T17:09:12.093Z,87.00
2023-04-26T17:13:13.856Z,86.60
2023-04-26T17:17:15.948Z,85.90
2023-04-26T17:21:17.816Z,86.10
2023-04-26T17:25:19.679Z,86.40
2023-04-26T17:29:21.303Z,85.50
2023-04-26T17:33:23.582Z,88.00
2023-04-26T17:37:25.740Z,89.00
2023-04-26T17:41:27.429Z,90.50
2023-04-26T17:45:29.412Z,90.40
2023-04-26T17:49:32.029Z,91.70
2023-04-26T17:53:33.768Z,92.80
2023-04-26T17:57:36.469Z,93.50
2023-04-26T18:01:38.117Z,94.20
2023-04-26T18:05:39.997Z,94.90
2023-04-26T18:09:41.832Z,95.10
2023-04-26T18:13:43.608Z,95.90
2023-04-26T18:17:45.358Z,95.90
2023-04-26T18:21:46.988Z,95.60
2023-04-26T18:25:50.412Z,96.70
2023-04-26T18:29:52.103Z,96.30
2023-04-26T18:33:53.804Z,96.50
2023-04-26T18:37:55.562Z,97.20
2023-04-26T18:41:57.342Z,97.00
2023-04-26T18:45:59.192Z,98.30
2023-04-26T18:50:01.559Z,97.50
2023-04-26T18:54:03.311Z,99.00
2023-04-26T18:58:05.038Z,98.80
2023-04-26T19:02:07.139Z,99.30
2023-04-26T19:06:10.528Z,99.60
2023-04-26T19:10:12.363Z,99.90
2023-04-26T19:14:14.272Z,99.90
2023-04-26T19:18:17.895Z,99.90
2023-04-26T19:22:19.738Z,99.90
2023-04-26T19:26:21.426Z,99.90
2023-04-26T19:30:23.279Z,99.90
2023-04-26T19:34:25.007Z,99.90
2023-04-26T19:38:26.865Z,99.90
2023-04-26T19:42:28.560Z,99.90
2023-04-26T19:46:30.901Z,99.90
2023-04-26T19:50:32.624Z,99.90
2023-04-26T19:54:34.313Z,99.90
2023-04-26T19:58:36.007Z,99.90
2023-04-26T20:02:38.180Z,99.90
2023-04-26T20:06:40.097Z,99.90
2023-04-26T20:10:42.111Z,99.90
2023-04-26T20:14:43.955Z,99.90
2023-04-26T20:18:45.758Z,99.90
2023-04-26T20:22:47.728Z,99.90
2023-04-26T20:26:49.784Z,99.90
2023-04-26T20:30:51.739Z,99.90
2023-04-26T20:34:53.608Z,99.90
2023-04-26T20:38:55.798Z,99.90
2023-04-26T20:42:57.481Z,99.90
2023-04-26T20:46:59.132Z,99.90
2023-04-26T20:51:01.959Z,99.90
2023-04-26T20:55:04.306Z,99.90
2023-04-26T20:59:07.967Z,99.90
2023-04-26T21:03:09.880Z,99.90
2023-04-26T21:07:11.921Z,99.90
2023-04-26T21:11:13.614Z,99.90
2023-04-26T21:15:15.395Z,99.90
2023-04-26T21:19:17.067Z,99.90
2023-04-26T21:23:18.719Z,99.90
2023-04-26T21:27:20.353Z,99.90
2023-04-26T21:31:22.028Z,99.90
2023-04-26T21:35:23.890Z,99.90
2023-04-26T21:39:25.670Z,99.90
2023-04-26T21:43:27.380Z,99.90
2023-04-26T21:47:29.085Z,99.90
2023-04-26T21:51:31.444Z,99.90
2023-04-26T21:55:33.177Z,99.90
2023-04-26T21:59:36.322Z,99.90
2023-04-26T22:03:38.364Z,99.90
2023-04-26T22:07:40.221Z,99.90
2023-04-26T22:11:41.862Z,99.90
2023-04-26T22:15:43.955Z,99.90
2023-04-26T22:19:45.680Z,99.90
2023-04-26T22:23:47.454Z,99.90
2023-04-26T22:27:49.147Z,99.90
2023-04-26T22:31:50.858Z,99.90
2023-04-26T22:35:57.444Z,99.90
2023-04-26T22:39:59.296Z,99.90
2023-04-26T22:44:00.949Z,99.90
2023-04-26T22:48:02.715Z,99.90
2023-04-26T22:52:09.856Z,99.90
2023-04-26T22:56:16.337Z,99.90
2023-04-26T23:00:18.092Z,99.90
2023-04-26T23:04:19.826Z,99.90
2023-04-26T23:08:21.444Z,99.90
2023-04-26T23:12:23.593Z,99.90
2023-04-26T23:16:25.433Z,99.90
2023-04-26T23:20:27.122Z,99.90
2023-04-26T23:24:28.743Z,99.90
2023-04-26T23:28:30.836Z,99.90
2023-04-26T23:32:32.538Z,99.90
2023-04-26T23:36:34.301Z,99.90
2023-04-26T23:40:37.096Z,99.90
2023-04-26T23:44:38.711Z,99.90
2023-04-26T23:48:40.872Z,99.90
2023-04-26T23:52:42.566Z,99.90
2023-04-26T23:56:44.277Z,99.90
